Time;durP1;ratioP1;P1;durP2;ratioP2;P2;SDS_P1;SDS_P2;PMS_P1;PMS_P2;Temp;Humidity;BMP_temperature;BMP_pressure;BME280_temperature;BME280_humidity;BME280_pressure;Samples;Min_cycle;Max_cycle;Signal;HPM_P1;HPM_P2
2022/01/10 00:01:31;;;;;;;8.00;4.80;;;9.30;99.90;;;;;;5050495;28;20489;-69
2022/01/10 00:03:58;;;;;;;7.97;5.17;;;9.20;99.90;;;;;;5050629;28;20829;-70
2022/01/10 00:06:25;;;;;;;8.87;4.90;;;9.30;99.90;;;;;;5050794;28;20472;-71
2022/01/10 00:08:53;;;;;;;8.33;4.67;;;9.20;99.90;;;;;;5050549;28;20477;-70
2022/01/10 00:11:20;;;;;;;10.60;5.73;;;9.20;99.90;;;;;;5050432;28;20972;-70
2022/01/10 00:13:49;;;;;;;9.00;5.70;;;9.30;99.90;;;;;;5050074;28;20480;-72
2022/01/10 00:16:17;;;;;;;8.90;5.20;;;9.30;99.90;;;;;;5050390;28;20503;-71
2022/01/10 00:18:44;;;;;;;10.03;5.20;;;9.30;99.90;;;;;;5050156;28;20481;-70
2022/01/10 00:21:11;;;;;;;7.87;4.63;;;9.20;99.90;;;;;;5050390;28;20529;-69
2022/01/10 00:23:39;;;;;;;7.57;4.50;;;9.20;99.90;;;;;;5050360;28;20779;-72
2022/01/10 00:26:07;;;;;;;8.17;5.20;;;9.10;99.90;;;;;;5050257;28;20490;-69
2022/01/10 00:28:34;;;;;;;9.40;4.70;;;9.20;99.90;;;;;;5050064;28;20849;-69
2022/01/10 00:31:01;;;;;;;8.33;4.57;;;9.20;99.90;;;;;;5049961;28;20856;-70
2022/01/10 00:33:28;;;;;;;9.70;5.10;;;9.30;99.90;;;;;;5050076;28;20476;-69
2022/01/10 00:35:55;;;;;;;8.90;4.80;;;9.20;99.90;;;;;;5049953;28;20520;-71
2022/01/10 00:38:22;;;;;;;9.83;4.53;;;9.10;99.90;;;;;;5049806;28;20481;-71
2022/01/10 00:40:50;;;;;;;9.50;5.80;;;9.10;99.90;;;;;;5049790;28;20462;-70
2022/01/10 00:43:30;;;;;;;10.20;5.13;;;9.20;99.90;;;;;;5050090;28;20454;-72
2022/01/10 00:45:57;;;;;;;8.10;5.20;;;9.30;99.90;;;;;;5049837;28;20599;-70
2022/01/10 00:48:25;;;;;;;9.17;5.30;;;9.20;99.90;;;;;;5049732;28;20536;-70
2022/01/10 00:50:52;;;;;;;9.20;5.90;;;9.20;99.90;;;;;;5049847;28;20466;-71
2022/01/10 00:53:19;;;;;;;9.83;5.30;;;9.20;99.90;;;;;;5049569;28;20485;-71
2022/01/10 00:55:46;;;;;;;12.10;5.63;;;9.20;99.90;;;;;;5049630;28;20446;-71
2022/01/10 00:58:13;;;;;;;9.00;6.10;;;9.20;99.90;;;;;;5049584;28;21014;-71
2022/01/10 01:00:41;;;;;;;9.70;5.53;;;9.10;99.90;;;;;;5049743;28;20442;-71
2022/01/10 01:03:09;;;;;;;10.70;5.37;;;9.10;99.90;;;;;;5049366;28;20515;-70
2022/01/10 01:05:40;;;;;;;9.60;5.70;;;9.20;99.90;;;;;;5049644;28;20493;-70
2022/01/10 01:08:09;;;;;;;9.53;5.87;;;9.30;99.90;;;;;;5049544;28;20520;-71
2022/01/10 01:13:27;;;;;;;8.90;5.90;;;9.10;99.90;;;;;;5049674;28;20460;-72
2022/01/10 01:19:13;;;;;;;11.30;7.13;;;9.20;99.90;;;;;;5013146;28;20528;-70
2022/01/10 01:24:25;;;;;;;9.30;6.00;;;9.20;99.90;;;;;;5049379;28;20495;-70
2022/01/10 01:26:53;;;;;;;10.30;6.20;;;9.20;99.90;;;;;;5049090;28;20466;-72
2022/01/10 01:29:22;;;;;;;10.27;7.03;;;9.20;99.90;;;;;;5049101;28;20458;-72
2022/01/10 01:31:51;;;;;;;9.30;6.50;;;9.00;99.90;;;;;;5048885;28;20498;-73
2022/01/10 01:34:20;;;;;;;11.27;6.97;;;9.00;99.90;;;;;;5049183;28;20960;-70
2022/01/10 01:36:52;;;;;;;8.23;5.23;;;9.00;99.90;;;;;;5049269;28;20482;-72
2022/01/10 01:39:21;;;;;;;8.07;6.00;;;9.00;99.90;;;;;;5049137;28;20465;-69
2022/01/10 01:41:49;;;;;;;9.40;5.77;;;9.00;99.90;;;;;;5049217;28;20466;-69
2022/01/10 01:44:17;;;;;;;8.40;5.33;;;9.10;99.90;;;;;;5049053;28;20883;-70
2022/01/10 01:46:44;;;;;;;8.00;5.10;;;9.10;99.90;;;;;;5048834;28;20982;-72
2022/01/10 01:49:15;;;;;;;9.90;6.07;;;9.00;99.90;;;;;;5049098;28;20454;-71
2022/01/10 01:51:42;;;;;;;10.80;5.30;;;9.00;99.90;;;;;;5049125;28;20453;-70
2022/01/10 01:54:10;;;;;;;10.97;5.90;;;9.00;99.90;;;;;;5048493;28;20998;-73
2022/01/10 01:56:38;;;;;;;9.63;5.43;;;9.10;99.90;;;;;;5048839;28;20457;-70
2022/01/10 01:59:05;;;;;;;8.80;4.93;;;9.00;99.90;;;;;;5048585;28;20596;-70
2022/01/10 02:01:34;;;;;;;8.90;4.87;;;9.00;99.90;;;;;;5047626;28;20504;-71
2022/01/10 02:04:01;;;;;;;6.27;4.30;;;9.00;99.90;;;;;;5048996;28;20515;-71
2022/01/10 02:06:29;;;;;;;7.10;5.40;;;9.00;99.90;;;;;;5048566;28;20485;-72
2022/01/10 02:08:56;;;;;;;9.13;5.23;;;9.10;99.90;;;;;;5048776;28;20446;-71
2022/01/10 02:11:24;;;;;;;7.83;4.80;;;9.00;99.90;;;;;;5048737;28;20454;-71
2022/01/10 02:13:51;;;;;;;7.77;4.77;;;8.80;99.90;;;;;;5048996;28;20579;-71
2022/01/10 02:16:22;;;;;;;6.20;4.40;;;8.80;99.90;;;;;;5049066;28;20476;-70
2022/01/10 02:18:50;;;;;;;6.63;4.27;;;8.80;99.90;;;;;;5048671;28;20991;-70
2022/01/10 02:21:18;;;;;;;6.13;3.83;;;8.80;99.90;;;;;;5049783;28;20540;-70
2022/01/10 02:23:45;;;;;;;8.80;4.97;;;8.90;99.90;;;;;;5052298;28;20452;-71
2022/01/10 02:26:15;;;;;;;5.80;4.00;;;8.80;99.90;;;;;;5052417;28;20550;-72
2022/01/10 02:28:42;;;;;;;8.00;4.63;;;8.90;99.90;;;;;;5052344;28;20592;-70
2022/01/10 02:31:09;;;;;;;8.00;4.00;;;9.00;99.90;;;;;;5052453;28;20486;-70
2022/01/10 02:33:36;;;;;;;6.90;4.43;;;8.90;99.90;;;;;;5052227;28;20457;-70
2022/01/10 02:36:13;;;;;;;7.77;4.60;;;8.90;99.90;;;;;;5052061;28;20812;-71
2022/01/10 02:38:48;;;;;;;8.43;4.80;;;9.00;99.90;;;;;;5051996;28;20473;-71
2022/01/10 02:41:21;;;;;;;6.80;4.40;;;9.00;99.90;;;;;;5052293;28;20457;-71
2022/01/10 02:43:48;;;;;;;6.80;5.07;;;8.90;99.90;;;;;;5052004;28;20454;-72
2022/01/10 02:46:15;;;;;;;7.37;4.80;;;8.90;99.90;;;;;;5051698;28;20489;-71
2022/01/10 02:48:42;;;;;;;9.47;6.03;;;8.90;99.90;;;;;;5052028;28;20476;-71
2022/01/10 02:51:09;;;;;;;9.47;6.53;;;9.00;99.90;;;;;;5051827;28;20937;-70
2022/01/10 02:53:36;;;;;;;10.13;6.03;;;9.00;99.90;;;;;;5051652;28;20493;-70
2022/01/10 02:56:05;;;;;;;7.57;5.00;;;9.00;99.90;;;;;;5051957;28;20454;-70
2022/01/10 02:58:32;;;;;;;8.87;6.23;;;9.00;99.90;;;;;;5051552;28;20477;-70
2022/01/10 03:00:59;;;;;;;10.23;5.80;;;9.00;99.90;;;;;;5051537;28;20445;-70
2022/01/10 03:03:27;;;;;;;8.97;6.53;;;8.80;99.90;;;;;;5051767;28;20524;-72
2022/01/10 03:05:55;;;;;;;8.43;5.10;;;8.80;99.90;;;;;;5051622;28;20610;-69
2022/01/10 03:08:22;;;;;;;8.33;5.50;;;8.90;99.90;;;;;;5051682;28;20473;-72
2022/01/10 03:10:49;;;;;;;8.03;5.73;;;8.90;99.90;;;;;;5051147;28;20826;-72
2022/01/10 03:13:17;;;;;;;8.27;5.03;;;9.00;99.90;;;;;;5051216;28;20998;-70
2022/01/10 03:15:45;;;;;;;7.70;4.90;;;9.00;99.90;;;;;;5051537;28;20519;-72
2022/01/10 03:18:12;;;;;;;7.80;5.17;;;8.90;99.90;;;;;;5051531;28;20867;-71
2022/01/10 03:20:39;;;;;;;11.73;6.23;;;8.90;99.90;;;;;;5051496;28;20531;-70
2022/01/10 03:23:06;;;;;;;9.03;5.70;;;8.90;99.90;;;;;;5051412;28;20504;-70
2022/01/10 03:25:34;;;;;;;8.70;5.90;;;8.90;99.90;;;;;;5051137;28;20493;-70
2022/01/10 03:28:01;;;;;;;10.10;6.47;;;9.00;99.90;;;;;;5051097;28;20478;-70
2022/01/10 03:30:30;;;;;;;10.03;6.50;;;9.00;99.90;;;;;;5051184;28;20450;-71
2022/01/10 03:32:59;;;;;;;9.70;6.67;;;9.00;99.90;;;;;;5050905;28;20450;-72
2022/01/10 03:35:26;;;;;;;11.47;6.30;;;8.90;99.90;;;;;;5051228;28;20460;-70
2022/01/10 03:37:53;;;;;;;9.50;6.00;;;9.00;99.90;;;;;;5051394;28;20534;-72
2022/01/10 03:40:20;;;;;;;10.10;5.40;;;8.90;99.90;;;;;;5050963;28;20450;-71
2022/01/10 03:42:47;;;;;;;9.30;5.60;;;8.80;99.90;;;;;;5051192;28;20522;-73
2022/01/10 03:45:14;;;;;;;6.90;5.27;;;8.80;99.90;;;;;;5050825;28;20445;-69
2022/01/10 03:47:43;;;;;;;8.93;4.60;;;8.80;99.90;;;;;;5050818;28;20539;-69
2022/01/10 03:50:11;;;;;;;6.80;4.37;;;8.70;99.90;;;;;;5050952;28;20461;-70
2022/01/10 03:52:38;;;;;;;7.93;3.90;;;8.80;99.90;;;;;;5051135;28;20743;-72
2022/01/10 03:55:05;;;;;;;8.30;4.43;;;8.80;99.90;;;;;;5050429;28;20985;-71
2022/01/10 03:57:33;;;;;;;6.77;4.27;;;8.80;99.90;;;;;;5050454;28;20477;-71
2022/01/10 04:00:00;;;;;;;7.80;3.83;;;8.80;99.90;;;;;;5050614;28;20456;-72
2022/01/10 04:02:30;;;;;;;7.40;4.47;;;8.70;99.90;;;;;;5050294;28;20828;-73
2022/01/10 04:04:58;;;;;;;8.03;3.43;;;8.80;99.90;;;;;;5050806;28;20458;-70
2022/01/10 04:07:25;;;;;;;7.40;3.83;;;8.80;99.90;;;;;;5050405;28;20501;-72
2022/01/10 04:09:53;;;;;;;6.23;3.57;;;8.80;99.90;;;;;;5050320;28;20449;-70
2022/01/10 04:12:21;;;;;;;5.27;3.60;;;8.80;99.90;;;;;;5050582;28;20489;-71
2022/01/10 04:14:48;;;;;;;8.70;3.40;;;8.70;99.90;;;;;;5050416;28;20468;-71
2022/01/10 04:17:15;;;;;;;7.87;3.47;;;8.70;99.90;;;;;;5050380;28;20539;-71
2022/01/10 04:19:42;;;;;;;5.43;3.00;;;8.70;99.90;;;;;;5050028;28;20480;-71
2022/01/10 04:22:11;;;;;;;5.90;3.40;;;8.70;99.90;;;;;;5050291;28;20457;-69
2022/01/10 04:24:39;;;;;;;5.47;3.40;;;8.80;99.90;;;;;;5050160;28;20485;-70
2022/01/10 04:27:06;;;;;;;5.50;3.47;;;8.70;99.90;;;;;;5049829;28;20527;-72
2022/01/10 04:29:33;;;;;;;5.40;3.20;;;8.70;99.90;;;;;;5049866;28;20545;-70
2022/01/10 04:32:01;;;;;;;6.30;3.23;;;8.70;99.90;;;;;;5050128;28;20461;-70
2022/01/10 04:34:28;;;;;;;5.13;3.17;;;8.70;99.90;;;;;;5049759;28;20464;-70
2022/01/10 04:36:55;;;;;;;6.43;3.90;;;8.70;99.90;;;;;;5049862;28;20453;-69
2022/01/10 04:39:24;;;;;;;7.33;3.70;;;8.80;99.90;;;;;;5049739;28;21127;-67
2022/01/10 04:41:51;;;;;;;6.73;3.13;;;8.70;99.90;;;;;;5050062;28;20465;-68
2022/01/10 04:44:18;;;;;;;5.43;3.40;;;8.70;99.90;;;;;;5049403;28;20869;-66
2022/01/10 04:46:45;;;;;;;11.90;4.63;;;8.70;99.90;;;;;;5049878;28;20501;-65
2022/01/10 04:49:21;;;;;;;5.03;3.20;;;8.70;99.90;;;;;;5049422;28;20477;-68
2022/01/10 04:51:49;;;;;;;4.80;2.90;;;8.70;99.90;;;;;;5049556;28;20449;-69
2022/01/10 04:54:16;;;;;;;5.90;3.50;;;8.70;99.90;;;;;;5049608;28;20512;-66
2022/01/10 04:56:45;;;;;;;7.20;3.67;;;8.70;99.90;;;;;;5049616;28;20445;-70
2022/01/10 04:59:12;;;;;;;7.60;3.90;;;8.70;99.90;;;;;;5049558;28;20473;-68
2022/01/10 05:01:40;;;;;;;5.10;3.23;;;8.70;99.90;;;;;;5049578;28;20514;-66
2022/01/10 05:04:09;;;;;;;6.53;4.07;;;8.70;99.90;;;;;;5049441;28;21077;-66
2022/01/10 05:06:36;;;;;;;8.10;5.10;;;8.60;99.90;;;;;;5049459;28;20485;-68
2022/01/10 05:09:03;;;;;;;6.37;3.70;;;8.60;99.90;;;;;;5049443;28;20477;-66
2022/01/10 05:11:32;;;;;;;7.03;4.40;;;8.50;99.90;;;;;;5049428;28;20460;-67
2022/01/10 05:14:01;;;;;;;6.93;3.67;;;8.60;99.90;;;;;;5049219;28;20950;-74
2022/01/10 05:16:28;;;;;;;7.23;4.13;;;8.60;99.90;;;;;;5049420;28;20457;-69
2022/01/10 05:18:55;;;;;;;9.70;3.93;;;8.60;99.90;;;;;;5049165;28;20521;-71
2022/01/10 05:21:22;;;;;;;8.07;4.17;;;8.50;99.90;;;;;;5049092;28;20461;-72
2022/01/10 05:23:49;;;;;;;11.00;4.97;;;8.50;99.90;;;;;;5049599;28;20457;-75
2022/01/10 05:26:16;;;;;;;7.63;4.20;;;8.50;99.90;;;;;;5049466;28;20516;-75
2022/01/10 05:28:43;;;;;;;6.50;3.70;;;8.40;99.90;;;;;;5049553;28;21050;-75
2022/01/10 05:31:12;;;;;;;7.40;4.53;;;8.30;99.90;;;;;;5049562;28;20457;-72
2022/01/10 05:33:39;;;;;;;8.70;5.10;;;8.40;99.90;;;;;;5049380;28;20896;-70
2022/01/10 05:36:07;;;;;;;6.53;4.10;;;8.40;99.90;;;;;;5049145;28;20453;-71
2022/01/10 05:38:34;;;;;;;7.23;4.67;;;8.40;99.90;;;;;;5049521;28;20473;-75
2022/01/10 05:41:01;;;;;;;8.17;4.63;;;8.40;99.90;;;;;;5049485;28;20461;-73
2022/01/10 05:43:29;;;;;;;6.57;4.00;;;8.40;99.90;;;;;;5049300;28;20510;-76
2022/01/10 05:45:56;;;;;;;6.80;4.40;;;8.30;99.90;;;;;;5049111;28;20492;-75
2022/01/10 05:48:28;;;;;;;6.03;4.47;;;8.30;99.90;;;;;;5049243;28;20484;-75
2022/01/10 05:50:55;;;;;;;7.80;5.87;;;8.30;99.90;;;;;;5049454;28;20460;-77
2022/01/10 05:53:23;;;;;;;10.33;4.60;;;8.40;99.90;;;;;;5048927;28;20485;-75
2022/01/10 05:55:50;;;;;;;8.80;6.30;;;8.40;99.90;;;;;;5048995;28;20513;-74
2022/01/10 05:58:17;;;;;;;12.07;5.40;;;8.40;99.90;;;;;;5052754;28;20478;-77
2022/01/10 06:00:45;;;;;;;9.60;6.33;;;8.40;99.90;;;;;;5052980;28;20442;-75
2022/01/10 06:03:12;;;;;;;8.80;6.13;;;8.30;99.90;;;;;;5053049;28;20469;-76
2022/01/10 06:05:41;;;;;;;7.97;6.00;;;8.30;99.90;;;;;;5053086;28;20514;-74
2022/01/10 06:08:09;;;;;;;7.57;4.90;;;8.30;99.90;;;;;;5052519;28;20515;-80
2022/01/10 06:10:37;;;;;;;7.00;4.87;;;8.30;99.90;;;;;;5052783;28;20876;-80
2022/01/10 06:13:04;;;;;;;7.93;5.33;;;8.40;99.90;;;;;;5052745;28;20532;-79
2022/01/10 06:15:32;;;;;;;10.80;5.40;;;8.30;99.90;;;;;;5052830;28;20809;-79
2022/01/10 06:17:59;;;;;;;9.73;6.37;;;8.20;99.90;;;;;;5052826;28;20456;-79
2022/01/10 06:20:27;;;;;;;9.70;5.60;;;8.20;99.90;;;;;;5053366;28;20487;-78
2022/01/10 06:22:56;;;;;;;10.23;5.53;;;8.10;99.90;;;;;;5052733;28;20464;-79
2022/01/10 06:25:25;;;;;;;11.97;6.73;;;8.10;99.90;;;;;;5052945;28;20506;-79
2022/01/10 06:27:52;;;;;;;8.67;5.93;;;8.00;99.90;;;;;;5052437;28;20968;-79
2022/01/10 06:30:19;;;;;;;11.17;6.13;;;8.00;99.90;;;;;;5052929;28;20481;-79
2022/01/10 06:32:47;;;;;;;11.70;6.13;;;7.90;99.90;;;;;;5052746;28;20856;-78
2022/01/10 06:35:15;;;;;;;12.13;7.87;;;8.00;99.90;;;;;;5052397;28;20465;-79
2022/01/10 06:37:42;;;;;;;11.53;6.30;;;8.00;99.90;;;;;;5052163;28;20809;-78
2022/01/10 06:40:12;;;;;;;10.77;6.20;;;8.10;99.90;;;;;;5052197;28;20461;-79
2022/01/10 06:42:40;;;;;;;12.50;7.30;;;8.10;99.90;;;;;;5052275;28;20915;-79
2022/01/10 06:45:08;;;;;;;11.27;7.03;;;8.10;99.90;;;;;;5052188;28;20877;-79
2022/01/10 06:47:35;;;;;;;10.40;6.67;;;8.10;99.90;;;;;;5052222;28;20584;-74
2022/01/10 06:50:03;;;;;;;12.57;6.60;;;8.00;99.90;;;;;;5051708;28;20473;-79
2022/01/10 06:52:30;;;;;;;12.63;7.20;;;8.00;99.90;;;;;;5052012;28;20457;-79
2022/01/10 06:54:57;;;;;;;9.80;5.90;;;8.00;99.90;;;;;;5051991;28;20880;-76
2022/01/10 06:57:26;;;;;;;9.57;6.83;;;8.10;99.90;;;;;;5052341;28;20498;-77
2022/01/10 06:59:53;;;;;;;9.70;6.93;;;8.00;99.90;;;;;;5051890;28;20481;-78
2022/01/10 07:02:21;;;;;;;8.87;5.77;;;8.00;99.90;;;;;;5051921;28;20864;-79
2022/01/10 07:04:48;;;;;;;11.07;6.40;;;8.10;99.90;;;;;;5051850;28;20502;-80
2022/01/10 07:07:15;;;;;;;9.57;6.33;;;8.10;99.90;;;;;;5051373;28;20481;-79
2022/01/10 07:09:42;;;;;;;10.37;7.50;;;8.20;99.90;;;;;;5051950;28;20523;-81
2022/01/10 07:12:10;;;;;;;12.70;6.70;;;8.20;99.90;;;;;;5052320;28;20464;-81
2022/01/10 07:14:38;;;;;;;9.13;5.70;;;8.20;99.90;;;;;;5052368;28;20447;-81
2022/01/10 07:17:06;;;;;;;9.17;6.43;;;8.30;99.90;;;;;;5051770;28;20446;-79
2022/01/10 07:19:33;;;;;;;9.53;5.90;;;8.30;99.90;;;;;;5051581;28;21038;-80
2022/01/10 07:22:00;;;;;;;10.17;6.03;;;8.30;99.90;;;;;;5052000;28;20472;-83
2022/01/10 07:24:27;;;;;;;12.83;6.80;;;8.20;99.90;;;;;;5051810;28;20510;-81
2022/01/10 07:26:54;;;;;;;12.37;6.40;;;8.20;99.90;;;;;;5051553;28;20886;-81
2022/01/10 07:29:21;;;;;;;9.93;6.60;;;8.30;99.90;;;;;;5051529;28;20485;-78
2022/01/10 07:31:50;;;;;;;10.87;6.53;;;8.40;99.90;;;;;;5051710;28;20864;-78
2022/01/10 07:34:17;;;;;;;10.50;6.60;;;8.30;99.90;;;;;;5062110;28;21244;-77
2022/01/10 07:36:44;;;;;;;9.50;5.67;;;8.40;99.90;;;;;;5062107;28;20449;-80
2022/01/10 07:39:12;;;;;;;10.63;6.60;;;8.40;99.90;;;;;;5062247;28;20579;-77
2022/01/10 07:41:39;;;;;;;9.30;6.57;;;8.50;99.90;;;;;;5061429;28;20464;-77
2022/01/10 07:44:06;;;;;;;9.30;6.30;;;8.50;99.90;;;;;;5053608;28;20599;-78
2022/01/10 07:46:33;;;;;;;9.17;6.57;;;8.50;99.90;;;;;;5057024;28;20518;-78
2022/01/10 07:49:02;;;;;;;11.93;6.57;;;8.60;99.90;;;;;;5057356;28;20989;-78
2022/01/10 07:51:29;;;;;;;11.73;6.97;;;8.60;99.90;;;;;;5052201;28;20462;-81
2022/01/10 07:53:57;;;;;;;14.03;8.23;;;8.70;99.90;;;;;;5050888;28;20997;-81
2022/01/10 07:56:24;;;;;;;10.03;7.13;;;8.70;99.90;;;;;;5051362;28;20449;-77
2022/01/10 07:58:52;;;;;;;13.53;7.87;;;8.70;99.90;;;;;;5050779;28;20538;-81
2022/01/10 08:01:20;;;;;;;11.47;8.30;;;8.60;99.90;;;;;;5050940;28;20481;-79
2022/01/10 08:03:47;;;;;;;12.60;8.33;;;8.60;99.90;;;;;;5050963;28;21105;-80
2022/01/10 08:06:16;;;;;;;14.20;8.47;;;8.70;99.90;;;;;;5050901;28;20450;-80
2022/01/10 08:08:43;;;;;;;12.40;8.70;;;8.70;99.90;;;;;;5050775;28;20501;-80
2022/01/10 08:11:12;;;;;;;15.30;9.30;;;8.60;99.90;;;;;;5050769;28;20461;-78
2022/01/10 08:13:40;;;;;;;16.67;10.30;;;8.70;99.90;;;;;;5050590;28;20462;-79
2022/01/10 08:16:07;;;;;;;14.13;9.90;;;8.80;99.90;;;;;;5050353;28;20997;-80
2022/01/10 08:18:35;;;;;;;13.67;9.97;;;8.90;99.90;;;;;;5050053;28;20531;-78
2022/01/10 08:21:02;;;;;;;12.47;8.40;;;9.00;99.90;;;;;;5051001;28;20465;-78
2022/01/10 08:23:31;;;;;;;13.00;9.10;;;9.00;99.90;;;;;;5050505;28;20452;-78
2022/01/10 08:25:58;;;;;;;14.80;10.73;;;9.00;99.90;;;;;;5050375;28;20811;-81
2022/01/10 08:28:25;;;;;;;18.17;12.60;;;9.00;99.90;;;;;;5050330;28;20998;-81
2022/01/10 08:30:52;;;;;;;20.03;12.87;;;9.10;99.90;;;;;;5050779;28;20454;-82
2022/01/10 08:33:19;;;;;;;16.73;13.20;;;9.20;99.90;;;;;;5050485;28;20446;-80
2022/01/10 08:35:48;;;;;;;18.43;13.70;;;9.30;99.90;;;;;;5050776;28;20449;-77
2022/01/10 08:38:15;;;;;;;20.27;14.67;;;9.20;99.90;;;;;;5050066;28;21091;-78
2022/01/10 08:40:44;;;;;;;19.00;16.00;;;9.20;99.90;;;;;;5050297;28;20446;-81
2022/01/10 08:43:11;;;;;;;22.93;16.03;;;9.20;99.90;;;;;;5050566;28;20454;-76
2022/01/10 08:45:39;;;;;;;20.53;15.33;;;9.10;99.90;;;;;;5050112;28;20472;-75
2022/01/10 08:48:06;;;;;;;21.33;14.07;;;9.20;99.90;;;;;;5050051;28;20500;-76
2022/01/10 08:50:35;;;;;;;12.83;10.13;;;9.10;99.90;;;;;;5050028;28;20461;-73
2022/01/10 08:53:03;;;;;;;12.27;8.30;;;9.20;99.90;;;;;;5049539;28;20974;-77
2022/01/10 08:55:31;;;;;;;16.10;10.20;;;9.00;99.90;;;;;;5049816;28;20859;-77
2022/01/10 08:57:59;;;;;;;13.50;7.97;;;8.90;99.90;;;;;;5049800;28;20450;-78
2022/01/10 09:00:27;;;;;;;12.13;7.80;;;8.90;99.90;;;;;;5049816;28;20458;-76
2022/01/10 09:02:54;;;;;;;10.93;6.77;;;8.90;99.90;;;;;;5050038;28;20567;-77
2022/01/10 09:05:21;;;;;;;11.77;6.40;;;8.90;99.90;;;;;;5049618;28;20457;-78
2022/01/10 09:07:49;;;;;;;10.17;6.53;;;9.00;99.90;;;;;;5049406;28;20489;-77
2022/01/10 09:10:17;;;;;;;10.20;7.20;;;8.90;99.90;;;;;;5049818;28;20569;-76
2022/01/10 09:12:44;;;;;;;18.80;8.67;;;8.60;99.90;;;;;;5050121;28;20453;-76
2022/01/10 09:15:14;;;;;;;11.77;7.80;;;8.40;99.90;;;;;;5050524;28;20461;-75
2022/01/10 09:17:41;;;;;;;11.87;8.50;;;8.40;99.90;;;;;;5049894;28;20459;-75
2022/01/10 09:20:09;;;;;;;10.03;7.57;;;8.40;99.90;;;;;;5049398;28;20464;-73
2022/01/10 09:22:36;;;;;;;13.93;8.47;;;8.50;99.90;;;;;;5049445;28;20514;-68
2022/01/10 09:25:03;;;;;;;11.90;7.57;;;8.50;99.90;;;;;;5049148;28;20938;-66
2022/01/10 09:27:33;;;;;;;12.47;8.13;;;8.50;99.90;;;;;;5048830;28;20485;-66
2022/01/10 09:30:00;;;;;;;12.33;6.77;;;8.60;99.90;;;;;;5049709;28;20876;-74
2022/01/10 09:32:29;;;;;;;10.27;7.03;;;8.60;99.90;;;;;;5053601;28;20461;-70
2022/01/10 09:34:57;;;;;;;12.13;7.67;;;8.60;99.90;;;;;;5053609;28;20476;-72
2022/01/10 09:37:25;;;;;;;9.60;7.40;;;8.70;99.90;;;;;;5053295;28;20449;-73
2022/01/10 09:39:52;;;;;;;11.40;7.53;;;8.60;99.90;;;;;;5053318;28;20969;-72
2022/01/10 09:42:19;;;;;;;10.57;7.80;;;8.70;99.90;;;;;;5053700;28;20458;-72
2022/01/10 09:44:46;;;;;;;11.80;7.53;;;8.70;99.90;;;;;;5053428;28;20942;-74
2022/01/10 09:47:14;;;;;;;11.00;7.30;;;8.60;99.90;;;;;;5052931;28;20985;-73
2022/01/10 09:49:42;;;;;;;10.63;7.60;;;8.50;99.90;;;;;;5052991;28;20477;-68
2022/01/10 09:52:10;;;;;;;11.40;6.90;;;8.70;99.90;;;;;;5053128;28;20620;-64
2022/01/10 09:54:37;;;;;;;9.13;6.37;;;8.80;99.90;;;;;;5053154;28;20481;-78
2022/01/10 09:57:05;;;;;;;9.70;6.50;;;8.80;99.90;;;;;;5056096;28;20457;-78
2022/01/10 09:59:32;;;;;;;11.40;8.07;;;8.80;99.90;;;;;;5053592;28;20523;-77
2022/01/10 10:01:59;;;;;;;10.10;7.13;;;8.70;99.90;;;;;;5053478;28;20453;-79
2022/01/10 10:04:26;;;;;;;11.23;7.70;;;8.70;99.90;;;;;;5053042;28;20481;-75
2022/01/10 10:06:55;;;;;;;9.50;7.50;;;8.50;99.90;;;;;;5053237;28;20448;-72
2022/01/10 10:09:23;;;;;;;12.80;8.50;;;8.30;99.90;;;;;;5052767;28;20496;-76
2022/01/10 10:11:52;;;;;;;13.47;9.80;;;8.30;99.90;;;;;;5053130;28;20458;-76
2022/01/10 10:14:22;;;;;;;11.27;8.30;;;8.40;99.90;;;;;;5052584;28;20783;-64
2022/01/10 10:16:51;;;;;;;12.43;9.10;;;8.50;99.90;;;;;;5052772;28;20500;-76
2022/01/10 10:19:20;;;;;;;12.50;10.70;;;8.60;99.90;;;;;;5052712;28;20528;-75
2022/01/10 10:21:47;;;;;;;16.60;10.60;;;8.70;99.90;;;;;;5052792;28;20458;-76
2022/01/10 10:24:16;;;;;;;9.83;7.30;;;8.70;99.90;;;;;;5052550;28;20461;-77
2022/01/10 10:26:43;;;;;;;11.67;8.73;;;8.90;99.90;;;;;;5052710;28;20531;-75
2022/01/10 10:29:14;;;;;;;11.40;7.97;;;9.00;99.90;;;;;;5061270;28;20497;-75
2022/01/10 10:31:45;;;;;;;11.60;8.57;;;9.10;99.90;;;;;;5055279;28;20536;-72
2022/01/10 10:34:17;;;;;;;14.10;9.77;;;9.00;99.90;;;;;;5056534;28;20449;-76
2022/01/10 10:36:44;;;;;;;12.60;9.60;;;8.80;99.90;;;;;;5056633;28;20973;-78
2022/01/10 10:39:11;;;;;;;12.83;8.80;;;8.80;99.90;;;;;;5052429;28;20467;-74
2022/01/10 10:41:42;;;;;;;16.27;8.60;;;8.80;99.90;;;;;;5051343;28;20457;-72
2022/01/10 10:44:09;;;;;;;12.13;7.70;;;8.80;99.90;;;;;;5052191;28;20470;-71
2022/01/10 10:46:37;;;;;;;10.90;8.10;;;8.70;99.90;;;;;;5052090;28;20464;-72
2022/01/10 10:49:04;;;;;;;13.07;8.03;;;8.70;99.90;;;;;;5052069;28;21052;-79
2022/01/10 10:51:33;;;;;;;12.60;8.93;;;8.70;99.90;;;;;;5052452;28;20623;-76
2022/01/10 10:54:04;;;;;;;11.57;8.60;;;8.70;99.90;;;;;;5051793;28;20497;-73
2022/01/10 10:56:35;;;;;;;12.93;7.90;;;8.70;99.90;;;;;;5051699;28;20551;-71
2022/01/10 10:59:04;;;;;;;9.77;7.40;;;8.70;99.90;;;;;;5052036;28;20556;-73
2022/01/10 11:01:31;;;;;;;14.17;8.20;;;8.70;99.90;;;;;;5052047;28;20571;-75
2022/01/10 11:03:59;;;;;;;11.60;7.13;;;8.80;99.90;;;;;;5052009;28;20450;-78
2022/01/10 11:06:29;;;;;;;11.07;7.77;;;8.80;99.90;;;;;;5051785;28;20868;-74
2022/01/10 11:08:57;;;;;;;11.37;7.13;;;8.80;99.90;;;;;;5051244;28;21008;-75
2022/01/10 11:11:24;;;;;;;10.90;6.87;;;8.70;99.90;;;;;;5051522;28;20461;-74
2022/01/10 11:13:55;;;;;;;14.17;7.70;;;8.70;99.90;;;;;;5051333;28;20945;-75
2022/01/10 11:16:24;;;;;;;12.77;6.67;;;8.70;99.90;;;;;;5051657;28;20487;-75
2022/01/10 11:18:52;;;;;;;8.70;6.03;;;8.70;99.90;;;;;;5051220;28;20487;-75
2022/01/10 11:21:19;;;;;;;9.37;5.57;;;8.70;99.90;;;;;;5051541;28;20463;-74
2022/01/10 11:23:48;;;;;;;11.60;6.43;;;8.50;99.90;;;;;;5051540;28;20456;-75
2022/01/10 11:26:17;;;;;;;9.43;6.20;;;8.40;99.90;;;;;;5051520;28;20562;-74
2022/01/10 11:28:49;;;;;;;9.20;5.57;;;8.50;99.90;;;;;;5051159;28;20529;-74
2022/01/10 11:31:23;;;;;;;9.37;5.30;;;8.50;99.90;;;;;;5051369;28;20537;-74
2022/01/10 11:33:52;;;;;;;9.47;6.00;;;8.50;99.90;;;;;;5051133;28;20545;-75
2022/01/10 11:36:21;;;;;;;10.80;5.50;;;8.60;99.90;;;;;;5051142;28;20507;-72
2022/01/10 11:38:50;;;;;;;9.73;5.83;;;8.50;99.90;;;;;;5049652;28;20539;-76
2022/01/10 11:41:20;;;;;;;9.77;5.60;;;8.50;99.90;;;;;;5051222;28;20462;-74
2022/01/10 11:43:52;;;;;;;10.17;6.40;;;8.50;99.90;;;;;;5050845;28;20465;-73
2022/01/10 11:46:27;;;;;;;10.90;6.50;;;8.50;99.90;;;;;;5050882;28;20464;-73
2022/01/10 11:48:59;;;;;;;13.53;7.73;;;8.50;99.90;;;;;;5050822;28;20492;-73
2022/01/10 11:51:29;;;;;;;15.93;6.87;;;8.60;99.90;;;;;;5050986;28;20827;-73
2022/01/10 11:54:07;;;;;;;14.07;6.83;;;8.60;99.90;;;;;;5050316;28;20489;-73
2022/01/10 11:56:36;;;;;;;11.30;5.77;;;8.60;99.90;;;;;;5050436;28;20502;-73
2022/01/10 11:59:22;;;;;;;13.90;8.20;;;8.60;99.90;;;;;;5050473;28;20476;-73
2022/01/10 12:01:57;;;;;;;13.23;7.13;;;8.60;99.90;;;;;;5050723;28;20765;-73
2022/01/10 12:04:26;;;;;;;12.10;6.60;;;8.60;99.90;;;;;;5050005;28;20957;-73
2022/01/10 12:06:53;;;;;;;13.43;6.83;;;8.60;99.90;;;;;;5050181;28;20462;-76
2022/01/10 12:09:21;;;;;;;13.50;7.33;;;8.60;99.90;;;;;;5050178;28;20516;-73
2022/01/10 12:11:50;;;;;;;11.40;6.93;;;8.70;99.90;;;;;;5050348;28;20958;-73
2022/01/10 12:14:18;;;;;;;10.83;6.73;;;8.70;99.90;;;;;;5050402;28;20449;-73
2022/01/10 12:16:45;;;;;;;13.03;8.30;;;8.80;99.90;;;;;;5050320;28;20481;-71
2022/01/10 12:19:14;;;;;;;15.20;7.70;;;8.70;99.90;;;;;;5050325;28;20477;-71
2022/01/10 12:21:41;;;;;;;23.70;7.67;;;8.60;99.90;;;;;;5050034;28;20454;-72
2022/01/10 12:24:08;;;;;;;18.63;9.00;;;8.40;99.90;;;;;;5050168;28;20491;-73
2022/01/10 12:26:36;;;;;;;12.23;8.03;;;8.40;99.90;;;;;;5050412;28;20571;-71
2022/01/10 12:29:06;;;;;;;12.67;7.60;;;8.60;99.90;;;;;;5049980;28;20843;-72
2022/01/10 12:31:35;;;;;;;12.30;8.40;;;8.70;99.90;;;;;;5050381;28;20458;-74
2022/01/10 12:34:03;;;;;;;11.40;8.00;;;8.80;99.90;;;;;;5050107;28;20464;-71
2022/01/10 12:36:33;;;;;;;12.50;8.10;;;8.90;99.90;;;;;;5049946;28;20928;-76
2022/01/10 12:39:03;;;;;;;14.10;8.20;;;8.90;99.90;;;;;;5050342;28;20831;-75
2022/01/10 12:41:32;;;;;;;11.77;8.37;;;8.90;99.90;;;;;;5050094;28;20449;-72
2022/01/10 12:44:00;;;;;;;17.07;9.30;;;8.90;99.90;;;;;;5049914;28;20471;-75
2022/01/10 12:46:32;;;;;;;15.00;9.03;;;8.90;99.90;;;;;;5049617;28;20465;-72
2022/01/10 12:49:02;;;;;;;14.43;9.20;;;9.00;99.90;;;;;;5049779;28;20497;-71
2022/01/10 12:51:36;;;;;;;13.87;8.80;;;9.00;99.90;;;;;;5049860;28;20454;-72
2022/01/10 12:54:05;;;;;;;15.40;9.67;;;9.00;99.90;;;;;;5049174;28;20520;-73
2022/01/10 12:56:32;;;;;;;19.07;10.10;;;8.80;99.90;;;;;;5049557;28;20532;-74
2022/01/10 12:58:59;;;;;;;16.83;10.63;;;8.70;99.90;;;;;;5049302;28;20473;-74
2022/01/10 13:01:26;;;;;;;14.20;10.60;;;8.70;99.90;;;;;;5049516;28;20473;-75
2022/01/10 13:03:56;;;;;;;14.90;9.50;;;8.80;99.90;;;;;;5049802;28;20458;-74